Time;durP1;ratioP1;P1;durP2;ratioP2;P2;SDS_P1;SDS_P2;PMS_P1;PMS_P2;Temp;Humidity;BMP_temperature;BMP_pressure;BME280_temperature;BME280_humidity;BME280_pressure;Samples;Min_cycle;Max_cycle;Signal;HPM_P1;HPM_P2
2022/12/02 00:00:52;;;;;;;;;;;;;;;;;;5014759;28;1358;-74
2022/12/02 00:03:19;;;;;;;;;;;;;;;;;;5013230;28;1128;-74
2022/12/02 00:05:47;;;;;;;;;;;;;;;;;;5031793;28;1067;-74
2022/12/02 00:08:14;;;;;;;;;;;;;;;;;;5013622;28;1360;-73
2022/12/02 00:10:40;;;;;;;;;;;;;;;;;;5031618;28;1325;-74
2022/12/02 00:13:10;;;;;;;;;;;;;;;;;;5030322;28;1976;-74
2022/12/02 00:15:40;;;;;;;;;;;;;;;;;;5030749;28;1000;-74
2022/12/02 00:18:07;;;;;;;;;;;;;;;;;;5031103;28;1064;-75
2022/12/02 00:20:33;;;;;;;;;;;;;;;;;;5031230;28;1408;-74
2022/12/02 00:23:00;;;;;;;;;;;;;;;;;;5030736;28;1127;-74
2022/12/02 00:25:26;;;;;;;;;;;;;;;;;;5031397;28;949;-73
2022/12/02 00:27:52;;;;;;;;;;;;;;;;;;5031368;28;1076;-74
2022/12/02 00:30:18;;;;;;;;;;;;;;;;;;5013334;28;1320;-74
2022/12/02 00:32:46;;;;;;;;;;;;;;;;;;5012647;28;1910;-73
2022/12/02 00:35:12;;;;;;;;;;;;;;;;;;5013345;28;1142;-74
2022/12/02 00:37:38;;;;;;;;;;;;;;;;;;5013681;28;1273;-73
2022/12/02 00:40:05;;;;;;;;;;;;;;;;;;5013021;28;1381;-74
2022/12/02 00:42:31;;;;;;;;;;;;;;;;;;5012579;28;1144;-73
2022/12/02 00:47:42;;;;;;;;;;;;;;;;;;5013382;28;1337;-73
2022/12/02 00:50:10;;;;;;;;;;;;;;;;;;5031159;28;1333;-74
2022/12/02 00:52:36;;;;;;;;;;;;;;;;;;5012868;28;1926;-74
2022/12/02 00:55:02;;;;;;;;;;;;;;;;;;5030782;28;937;-74
2022/12/02 00:57:29;;;;;;;;;;;;;;;;;;5033466;28;1356;-73
2022/12/02 00:59:55;;;;;;;;;;;;;;;;;;5030786;28;1341;-74
2022/12/02 01:02:21;;;;;;;;;;;;;;;;;;5029926;28;850;-74
2022/12/02 01:04:47;;;;;;;;;;;;;;;;;;5031121;28;1064;-74
2022/12/02 01:07:15;;;;;;;;;;;;;;;;;;5013003;28;1369;-74
2022/12/02 01:09:41;;;;;;;;;;;;;;;;;;5013035;28;1132;-74
2022/12/02 01:12:08;;;;;;;;;;;;;;;;;;5012024;28;1914;-74
2022/12/02 01:14:34;;;;;;;;;;;;;;;;;;5013024;28;1298;-74
2022/12/02 01:17:00;;;;;;;;;;;;;;;;;;5012932;28;1120;-73
2022/12/02 01:19:26;;;;;;;;;;;;;;;;;;5030726;28;1119;-71
2022/12/02 01:21:52;;;;;;;;;;;;;;;;;;5029896;28;1409;-74
2022/12/02 01:24:20;;;;;;;;;;;;;;;;;;5030438;28;1060;-74
2022/12/02 01:26:46;;;;;;;;;;;;;;;;;;5012935;28;897;-73
2022/12/02 01:29:12;;;;;;;;;;;;;;;;;;5034463;28;822;-74
2022/12/02 01:31:39;;;;;;;;;;;;;;;;;;5016207;28;1573;-73
2022/12/02 01:34:06;;;;;;;;;;;;;;;;;;5034175;28;1895;-72
2022/12/02 01:36:32;;;;;;;;;;;;;;;;;;5016475;28;929;-74
2022/12/02 01:38:58;;;;;;;;;;;;;;;;;;5016495;28;1467;-73
2022/12/02 01:41:26;;;;;;;;;;;;;;;;;;5005920;28;1496;-74
2022/12/02 01:43:53;;;;;;;;;;;;;;;;;;4988789;28;1383;-74
2022/12/02 01:46:19;;;;;;;;;;;;;;;;;;4983832;28;1120;-73
2022/12/02 01:48:46;;;;;;;;;;;;;;;;;;4992916;28;1149;-73
2022/12/02 01:51:13;;;;;;;;;;;;;;;;;;4968404;28;1404;-73
2022/12/02 01:53:42;;;;;;;;;;;;;;;;;;4967018;28;2021;-76
2022/12/02 01:56:09;;;;;;;;;;;;;;;;;;4970474;28;964;-75
2022/12/02 01:58:40;;;;;;;;;;;;;;;;;;4957139;28;1289;-73
2022/12/02 02:01:21;;;;;;;;;;;;;;;;;;4964861;28;1314;-73
2022/12/02 02:03:47;;;;;;;;;;;;;;;;;;4994025;28;1136;-75
2022/12/02 02:06:14;;;;;;;;;;;;;;;;;;5040543;28;1294;-74
2022/12/02 02:08:40;;;;;;;;;;;;;;;;;;5035715;28;1215;-75
2022/12/02 02:11:07;;;;;;;;;;;;;;;;;;5035418;28;1431;-74
2022/12/02 02:13:33;;;;;;;;;;;;;;;;;;5033032;28;1976;-74
2022/12/02 02:16:00;;;;;;;;;;;;;;;;;;5051667;28;1037;-75
2022/12/02 02:18:27;;;;;;;;;;;;;;;;;;5051563;28;1052;-73
2022/12/02 02:20:53;;;;;;;;;;;;;;;;;;5052033;28;1309;-74
2022/12/02 02:23:22;;;;;;;;;;;;;;;;;;5051130;28;1107;-75
2022/12/02 02:25:50;;;;;;;;;;;;;;;;;;5034081;28;1431;-74
2022/12/02 02:28:19;;;;;;;;;;;;;;;;;;5034775;28;1426;-74
2022/12/02 02:30:46;;;;;;;;;;;;;;;;;;5035292;28;1358;-74
2022/12/02 02:33:12;;;;;;;;;;;;;;;;;;5034603;28;1910;-74
2022/12/02 02:35:39;;;;;;;;;;;;;;;;;;5035385;28;1155;-75
2022/12/02 02:38:05;;;;;;;;;;;;;;;;;;5035040;28;1176;-76
2022/12/02 02:40:33;;;;;;;;;;;;;;;;;;5034239;28;1667;-75
2022/12/02 02:43:00;;;;;;;;;;;;;;;;;;5034411;28;1187;-76
2022/12/02 02:45:27;;;;;;;;;;;;;;;;;;5035222;28;1187;-75
2022/12/02 02:47:53;;;;;;;;;;;;;;;;;;5035242;28;1188;-75
2022/12/02 02:50:20;;;;;;;;;;;;;;;;;;5034922;28;1388;-75
2022/12/02 02:52:46;;;;;;;;;;;;;;;;;;5033335;28;1906;-75
2022/12/02 02:55:15;;;;;;;;;;;;;;;;;;5035273;28;1387;-74
2022/12/02 02:57:42;;;;;;;;;;;;;;;;;;5035758;28;1328;-75
2022/12/02 03:00:09;;;;;;;;;;;;;;;;;;5054194;28;1387;-75
2022/12/02 03:02:36;;;;;;;;;;;;;;;;;;5053639;28;1288;-76
2022/12/02 03:05:02;;;;;;;;;;;;;;;;;;5057401;28;1315;-75
2022/12/02 03:07:29;;;;;;;;;;;;;;;;;;5062923;22;3588;-81
2022/12/02 03:09:55;;;;;;;;;;;;;;;;;;5058376;28;1502;-81
2022/12/02 03:12:21;;;;;;;;;;;;;;;;;;5057958;28;1088;-81
2022/12/02 03:14:49;;;;;;;;;;;;;;;;;;5061080;28;1972;-80
2022/12/02 03:17:15;;;;;;;;;;;;;;;;;;5060146;28;1320;-81
2022/12/02 03:19:41;;;;;;;;;;;;;;;;;;5059544;28;1147;-80
2022/12/02 03:22:07;;;;;;;;;;;;;;;;;;5060125;28;1061;-80
2022/12/02 03:24:34;;;;;;;;;;;;;;;;;;5060018;28;940;-80
2022/12/02 03:27:00;;;;;;;;;;;;;;;;;;5060647;28;1363;-80
2022/12/02 03:29:27;;;;;;;;;;;;;;;;;;5058627;28;1147;-80
2022/12/02 03:31:54;;;;;;;;;;;;;;;;;;5057754;28;1251;-81
2022/12/02 03:34:21;;;;;;;;;;;;;;;;;;5060096;28;1918;-80
2022/12/02 03:36:47;;;;;;;;;;;;;;;;;;5059783;28;1322;-80
2022/12/02 03:39:13;;;;;;;;;;;;;;;;;;5059864;28;976;-80
2022/12/02 03:41:39;;;;;;;;;;;;;;;;;;5059557;28;1040;-80
2022/12/02 03:44:05;;;;;;;;;;;;;;;;;;5060822;28;1119;-80
2022/12/02 03:46:32;;;;;;;;;;;;;;;;;;5060699;28;1344;-80
2022/12/02 03:49:00;;;;;;;;;;;;;;;;;;5060662;28;885;-81
2022/12/02 03:51:26;;;;;;;;;;;;;;;;;;5056598;28;1740;-80
2022/12/02 03:53:53;;;;;;;;;;;;;;;;;;5058954;28;1918;-81
2022/12/02 03:56:19;;;;;;;;;;;;;;;;;;5059562;28;1351;-80
2022/12/02 03:58:46;;;;;;;;;;;;;;;;;;5058453;28;1202;-80
2022/12/02 04:01:12;;;;;;;;;;;;;;;;;;5058668;28;1068;-80
2022/12/02 04:03:39;;;;;;;;;;;;;;;;;;5054248;28;1405;-80
2022/12/02 04:06:06;;;;;;;;;;;;;;;;;;5060821;28;1320;-80
2022/12/02 04:08:32;;;;;;;;;;;;;;;;;;5080574;28;1043;-79
2022/12/02 04:10:59;;;;;;;;;;;;;;;;;;5061735;28;1159;-80
2022/12/02 04:13:25;;;;;;;;;;;;;;;;;;5077322;28;1891;-80
2022/12/02 04:15:52;;;;;;;;;;;;;;;;;;5061888;28;1334;-80
2022/12/02 04:18:18;;;;;;;;;;;;;;;;;;5078398;28;1024;-81
2022/12/02 04:20:44;;;;;;;;;;;;;;;;;;5077978;28;1111;-81
2022/12/02 04:23:12;;;;;;;;;;;;;;;;;;5076845;28;997;-80
2022/12/02 04:25:38;;;;;;;;;;;;;;;;;;5061528;28;1293;-80
2022/12/02 04:28:04;;;;;;;;;;;;;;;;;;5060546;28;1273;-80
2022/12/02 04:30:30;;;;;;;;;;;;;;;;;;5088960;28;1060;-80
2022/12/02 04:32:56;;;;;;;;;;;;;;;;;;5067389;28;1103;-80
2022/12/02 04:35:23;;;;;;;;;;;;;;;;;;5090956;28;1964;-80
2022/12/02 04:37:50;;;;;;;;;;;;;;;;;;5089778;28;1265;-81
2022/12/02 04:40:19;;;;;;;;;;;;;;;;;;5060434;28;1182;-80
2022/12/02 04:42:45;;;;;;;;;;;;;;;;;;5078432;28;968;-80
2022/12/02 04:45:11;;;;;;;;;;;;;;;;;;5075802;28;1352;-80
2022/12/02 04:47:37;;;;;;;;;;;;;;;;;;5074012;28;1503;-79
2022/12/02 04:50:05;;;;;;;;;;;;;;;;;;5043553;28;1363;-80
2022/12/02 04:52:31;;;;;;;;;;;;;;;;;;5070011;28;1589;-79
2022/12/02 04:54:57;;;;;;;;;;;;;;;;;;5075079;28;1973;-80
2022/12/02 04:57:25;;;;;;;;;;;;;;;;;;5075208;28;1459;-81
2022/12/02 04:59:51;;;;;;;;;;;;;;;;;;5085180;28;1534;-80
2022/12/02 05:02:18;;;;;;;;;;;;;;;;;;5071428;28;1347;-80
2022/12/02 05:04:44;;;;;;;;;;;;;;;;;;5086711;28;1192;-81
2022/12/02 05:07:10;;;;;;;;;;;;;;;;;;5078934;28;1446;-81
2022/12/02 05:09:36;;;;;;;;;;;;;;;;;;5065457;28;1045;-81
2022/12/02 05:12:02;;;;;;;;;;;;;;;;;;5068651;28;1399;-81
2022/12/02 05:14:30;;;;;;;;;;;;;;;;;;5075860;28;1899;-81
2022/12/02 05:16:56;;;;;;;;;;;;;;;;;;5075718;28;1432;-80
2022/12/02 05:19:22;;;;;;;;;;;;;;;;;;5082347;28;1228;-79
2022/12/02 05:21:49;;;;;;;;;;;;;;;;;;5064338;28;1481;-80
2022/12/02 05:24:15;;;;;;;;;;;;;;;;;;5079128;28;1330;-79
2022/12/02 05:26:41;;;;;;;;;;;;;;;;;;5080932;28;1485;-80
2022/12/02 05:29:07;;;;;;;;;;;;;;;;;;5081455;28;1166;-80
2022/12/02 05:31:35;;;;;;;;;;;;;;;;;;5080818;28;1247;-80
2022/12/02 05:34:01;;;;;;;;;;;;;;;;;;5080685;28;1895;-80
2022/12/02 05:36:27;;;;;;;;;;;;;;;;;;5081212;28;1379;-80
2022/12/02 05:38:54;;;;;;;;;;;;;;;;;;5082401;28;821;-80
2022/12/02 05:41:20;;;;;;;;;;;;;;;;;;5080070;28;1246;-79
2022/12/02 05:43:46;;;;;;;;;;;;;;;;;;5082115;28;1145;-80
2022/12/02 05:46:13;;;;;;;;;;;;;;;;;;5083247;28;1368;-80
2022/12/02 05:48:41;;;;;;;;;;;;;;;;;;5083303;28;1133;-80
2022/12/02 05:51:09;;;;;;;;;;;;;;;;;;5087201;28;1133;-80
2022/12/02 05:53:36;;;;;;;;;;;;;;;;;;5088286;28;1887;-81
2022/12/02 05:56:02;;;;;;;;;;;;;;;;;;5088953;28;1402;-80
2022/12/02 05:58:28;;;;;;;;;;;;;;;;;;5087309;28;782;-80
2022/12/02 06:00:55;;;;;;;;;;;;;;;;;;5087461;28;1232;-80
2022/12/02 06:03:21;;;;;;;;;;;;;;;;;;5085758;28;1083;-79
2022/12/02 06:05:49;;;;;;;;;;;;;;;;;;5087448;28;1282;-79
2022/12/02 06:08:17;;;;;;;;;;;;;;;;;;5090007;28;1055;-79
2022/12/02 06:10:43;;;;;;;;;;;;;;;;;;5088677;28;1119;-80
2022/12/02 06:13:11;;;;;;;;;;;;;;;;;;5087600;28;1060;-79
2022/12/02 06:15:38;;;;;;;;;;;;;;;;;;5088217;28;1918;-79
2022/12/02 06:18:09;;;;;;;;;;;;;;;;;;5087054;28;1521;-78
2022/12/02 06:20:36;;;;;;;;;;;;;;;;;;5088621;28;1115;-79
2022/12/02 06:23:03;;;;;;;;;;;;;;;;;;5086058;28;948;-79
2022/12/02 06:25:30;;;;;;;;;;;;;;;;;;5085710;28;1331;-78
2022/12/02 06:27:56;;;;;;;;;;;;;;;;;;5076124;28;1424;-78
2022/12/02 06:30:23;;;;;;;;;;;;;;;;;;5077398;28;1091;-78
2022/12/02 06:32:51;;;;;;;;;;;;;;;;;;5076302;28;782;-78
2022/12/02 06:35:19;;;;;;;;;;;;;;;;;;5075699;28;1977;-78
2022/12/02 06:37:45;;;;;;;;;;;;;;;;;;5073459;28;1355;-78
2022/12/02 06:40:20;;;;;;;;;;;;;;;;;;5077298;28;1016;-77
2022/12/02 06:42:46;;;;;;;;;;;;;;;;;;5075785;28;1322;-78
2022/12/02 06:45:14;;;;;;;;;;;;;;;;;;5079173;28;1170;-80
2022/12/02 06:47:48;;;;;;;;;;;;;;;;;;5068769;28;1399;-78
2022/12/02 06:50:35;;;;;;;;;;;;;;;;;;5048792;28;1108;-78
2022/12/02 06:53:12;;;;;;;;;;;;;;;;;;5066954;28;1468;-78
2022/12/02 06:55:40;;;;;;;;;;;;;;;;;;5067982;28;1906;-78
2022/12/02 06:58:16;;;;;;;;;;;;;;;;;;5065963;28;1234;-79
2022/12/02 07:00:42;;;;;;;;;;;;;;;;;;5049317;28;1065;-79
2022/12/02 07:03:10;;;;;;;;;;;;;;;;;;5082323;28;1467;-79
2022/12/02 07:05:36;;;;;;;;;;;;;;;;;;5087294;28;984;-79
2022/12/02 07:08:04;;;;;;;;;;;;;;;;;;5087081;28;1373;-79
2022/12/02 07:10:31;;;;;;;;;;;;;;;;;;5069484;28;1115;-79
2022/12/02 07:12:59;;;;;;;;;;;;;;;;;;5083410;28;1491;-79
2022/12/02 07:15:26;;;;;;;;;;;;;;;;;;5087687;28;1906;-79
2022/12/02 07:17:53;;;;;;;;;;;;;;;;;;5069106;28;1357;-79
2022/12/02 07:20:22;;;;;;;;;;;;;;;;;;5081864;28;1396;-78
2022/12/02 07:22:48;;;;;;;;;;;;;;;;;;5085967;28;1128;-80
2022/12/02 07:25:23;;;;;;;;;;;;;;;;;;5086579;28;952;-79
2022/12/02 07:27:49;;;;;;;;;;;;;;;;;;5068499;28;1502;-79
2022/12/02 07:30:20;;;;;;;;;;;;;;;;;;5086971;28;786;-79
2022/12/02 07:32:46;;;;;;;;;;;;;;;;;;5065255;28;1382;-79
2022/12/02 07:35:13;;;;;;;;;;;;;;;;;;5083210;28;1898;-79
2022/12/02 07:37:39;;;;;;;;;;;;;;;;;;5087081;28;1278;-80
2022/12/02 07:40:06;;;;;;;;;;;;;;;;;;5068148;28;1309;-78
2022/12/02 07:42:33;;;;;;;;;;;;;;;;;;5067953;28;975;-79
2022/12/02 07:44:59;;;;;;;;;;;;;;;;;;5088044;28;1083;-78
2022/12/02 07:47:27;;;;;;;;;;;;;;;;;;5089886;28;1416;-78
2022/12/02 07:49:53;;;;;;;;;;;;;;;;;;5072388;28;1162;-78
2022/12/02 07:52:20;;;;;;;;;;;;;;;;;;5088113;28;1112;-78
2022/12/02 07:54:46;;;;;;;;;;;;;;;;;;5070075;28;1898;-79
2022/12/02 07:57:12;;;;;;;;;;;;;;;;;;5088010;28;1317;-79
2022/12/02 07:59:38;;;;;;;;;;;;;;;;;;5091543;28;1050;-78
2022/12/02 08:02:04;;;;;;;;;;;;;;;;;;5087938;28;1118;-77
2022/12/02 08:04:32;;;;;;;;;;;;;;;;;;5084180;28;1040;-79
2022/12/02 08:06:58;;;;;;;;;;;;;;;;;;5085128;28;1324;-79
2022/12/02 08:09:24;;;;;;;;;;;;;;;;;;5085241;28;1036;-79
2022/12/02 08:11:51;;;;;;;;;;;;;;;;;;5084456;28;1095;-78
2022/12/02 08:14:17;;;;;;;;;;;;;;;;;;5067333;28;1248;-79
2022/12/02 08:16:43;;;;;;;;;;;;;;;;;;5084809;28;1894;-79
2022/12/02 08:19:09;;;;;;;;;;;;;;;;;;5084353;28;1115;-79
2022/12/02 08:21:39;;;;;;;;;;;;;;;;;;5084259;28;1063;-78
2022/12/02 08:24:05;;;;;;;;;;;;;;;;;;5085602;28;1071;-79
2022/12/02 08:26:31;;;;;;;;;;;;;;;;;;5066523;28;1317;-79
2022/12/02 08:28:58;;;;;;;;;;;;;;;;;;5086039;28;1167;-79
2022/12/02 08:31:24;;;;;;;;;;;;;;;;;;5065509;28;1147;-79
2022/12/02 08:33:51;;;;;;;;;;;;;;;;;;5067183;28;1158;-78
2022/12/02 08:36:17;;;;;;;;;;;;;;;;;;5066604;28;1966;-79
2022/12/02 08:38:44;;;;;;;;;;;;;;;;;;5085344;28;901;-79
2022/12/02 08:41:11;;;;;;;;;;;;;;;;;;5081073;28;1063;-75
2022/12/02 08:43:37;;;;;;;;;;;;;;;;;;5072750;28;1190;-77
2022/12/02 08:46:04;;;;;;;;;;;;;;;;;;5079942;28;1455;-78
2022/12/02 08:48:30;;;;;;;;;;;;;;;;;;5079220;28;1465;-78
2022/12/02 08:50:56;;;;;;;;;;;;;;;;;;5055078;28;1321;-77
2022/12/02 08:53:22;;;;;;;;;;;;;;;;;;5072994;28;1060;-77
2022/12/02 08:55:50;;;;;;;;;;;;;;;;;;5075778;28;1914;-76
2022/12/02 08:58:16;;;;;;;;;;;;;;;;;;5075034;28;1047;-77
2022/12/02 09:00:42;;;;;;;;;;;;;;;;;;5055073;28;1143;-78
2022/12/02 09:03:09;;;;;;;;;;;;;;;;;;5071377;28;1072;-77
2022/12/02 09:05:35;;;;;;;;;;;;;;;;;;5073246;28;854;-78
2022/12/02 09:08:01;;;;;;;;;;;;;;;;;;5073406;28;1390;-77
2022/12/02 09:10:28;;;;;;;;;;;;;;;;;;5055359;28;1267;-78
2022/12/02 09:12:55;;;;;;;;;;;;;;;;;;5057973;28;1195;-78
2022/12/02 09:15:22;;;;;;;;;;;;;;;;;;5056921;22;3731;-74
2022/12/02 09:17:48;;;;;;;;;;;;;;;;;;5044700;28;1144;-75
2022/12/02 09:20:15;;;;;;;;;;;;;;;;;;5049465;28;1183;-73
2022/12/02 09:22:44;;;;;;;;;;;;;;;;;;5049389;28;1043;-74
2022/12/02 09:25:10;;;;;;;;;;;;;;;;;;5050556;28;1333;-74
2022/12/02 09:27:36;;;;;;;;;;;;;;;;;;5036164;28;1400;-74
2022/12/02 09:30:05;;;;;;;;;;;;;;;;;;5033947;28;1067;-75
2022/12/02 09:32:31;;;;;;;;;;;;;;;;;;5046343;28;1087;-73
2022/12/02 09:34:58;;;;;;;;;;;;;;;;;;5045297;28;2347;-73
2022/12/02 09:37:27;;;;;;;;;;;;;;;;;;5039542;28;1100;-73
2022/12/02 09:39:53;;;;;;;;;;;;;;;;;;5031492;28;913;-73
2022/12/02 09:42:19;;;;;;;;;;;;;;;;;;5030205;28;1012;-75
2022/12/02 09:44:45;;;;;;;;;;;;;;;;;;5030472;28;1365;-75
2022/12/02 09:47:14;;;;;;;;;;;;;;;;;;5030512;28;1621;-74
2022/12/02 09:49:41;;;;;;;;;;;;;;;;;;5033254;28;965;-74
2022/12/02 09:52:12;;;;;;;;;;;;;;;;;;5015368;28;1286;-73
2022/12/02 09:54:38;;;;;;;;;;;;;;;;;;5033408;28;1339;-74
2022/12/02 09:57:05;;;;;;;;;;;;;;;;;;5033716;28;1973;-74
2022/12/02 09:59:32;;;;;;;;;;;;;;;;;;5033455;28;1059;-73
2022/12/02 10:01:58;;;;;;;;;;;;;;;;;;5032730;28;961;-74
2022/12/02 10:04:26;;;;;;;;;;;;;;;;;;5033615;28;1324;-73
2022/12/02 10:06:52;;;;;;;;;;;;;;;;;;5033464;28;1039;-73
2022/12/02 10:09:20;;;;;;;;;;;;;;;;;;5033388;28;1064;-72
2022/12/02 10:11:46;;;;;;;;;;;;;;;;;;5033037;28;937;-73
2022/12/02 10:14:13;;;;;;;;;;;;;;;;;;5033935;28;1337;-74
2022/12/02 10:16:39;;;;;;;;;;;;;;;;;;5052955;28;1906;-73
2022/12/02 10:19:06;;;;;;;;;;;;;;;;;;5053251;28;885;-75
2022/12/02 10:21:33;;;;;;;;;;;;;;;;;;5052412;28;1056;-76
2022/12/02 10:24:00;;;;;;;;;;;;;;;;;;5052907;28;1328;-73
2022/12/02 10:26:26;;;;;;;;;;;;;;;;;;5053225;28;1052;-74
2022/12/02 10:29:04;;;;;;;;;;;;;;;;;;5035440;28;1297;-74
2022/12/02 10:31:30;;;;;;;;;;;;;;;;;;5052307;28;1060;-74
2022/12/02 10:33:57;;;;;;;;;;;;;;;;;;5053015;28;1423;-74
2022/12/02 10:36:30;;;;;;;;;;;;;;;;;;5035042;28;1922;-72
2022/12/02 10:39:05;;;;;;;;;;;;;;;;;;5035195;28;926;-74
2022/12/02 10:41:31;;;;;;;;;;;;;;;;;;5051793;28;909;-74
2022/12/02 10:44:02;;;;;;;;;;;;;;;;;;5052322;28;1344;-74
2022/12/02 10:46:28;;;;;;;;;;;;;;;;;;5034897;28;1282;-74
2022/12/02 10:48:54;;;;;;;;;;;;;;;;;;5052412;28;779;-74
2022/12/02 10:51:21;;;;;;;;;;;;;;;;;;5033868;28;1155;-75
2022/12/02 10:53:48;;;;;;;;;;;;;;;;;;5052014;28;941;-74
2022/12/02 10:56:16;;;;;;;;;;;;;;;;;;5052306;28;1981;-75
2022/12/02 10:58:42;;;;;;;;;;;;;;;;;;5052460;28;778;-75
2022/12/02 11:01:09;;;;;;;;;;;;;;;;;;5051661;28;860;-75
2022/12/02 11:03:35;;;;;;;;;;;;;;;;;;5051262;28;721;-74
2022/12/02 11:06:04;;;;;;;;;;;;;;;;;;5034084;28;1314;-74
2022/12/02 11:08:30;;;;;;;;;;;;;;;;;;5052016;28;870;-74
2022/12/02 11:11:07;;;;;;;;;;;;;;;;;;5052095;28;1037;-75
2022/12/02 11:13:48;;;;;;;;;;;;;;;;;;5050956;28;1043;-74
2022/12/02 11:16:30;;;;;;;;;;;;;;;;;;5033819;28;1883;-75
2022/12/02 11:18:57;;;;;;;;;;;;;;;;;;5038707;28;1271;-75
2022/12/02 11:21:33;;;;;;;;;;;;;;;;;;5025821;28;1464;-75
2022/12/02 11:24:14;;;;;;;;;;;;;;;;;;5014184;28;1346;-73
2022/12/02 11:26:55;;;;;;;;;;;;;;;;;;5013446;28;1511;-75
2022/12/02 11:29:23;;;;;;;;;;;;;;;;;;5013247;28;1321;-75
2022/12/02 11:32:00;;;;;;;;;;;;;;;;;;5013000;28;1300;-74
2022/12/02 11:34:26;;;;;;;;;;;;;;;;;;5031329;28;1415;-74
2022/12/02 11:37:11;;;;;;;;;;;;;;;;;;5031461;28;1914;-75
2022/12/02 11:39:40;;;;;;;;;;;;;;;;;;5031236;28;1135;-75
2022/12/02 11:42:19;;;;;;;;;;;;;;;;;;5012879;28;1789;-74
2022/12/02 11:44:47;;;;;;;;;;;;;;;;;;5031412;28;1427;-75
2022/12/02 11:47:22;;;;;;;;;;;;;;;;;;5031473;28;1100;-75
2022/12/02 11:49:48;;;;;;;;;;;;;;;;;;5013656;28;1222;-74
2022/12/02 11:52:22;;;;;;;;;;;;;;;;;;5030573;28;1064;-74
2022/12/02 11:54:50;;;;;;;;;;;;;;;;;;5013405;28;1401;-74
2022/12/02 11:57:20;;;;;;;;;;;;;;;;;;5031169;28;1906;-74
2022/12/02 11:59:48;;;;;;;;;;;;;;;;;;5031231;28;778;-75
2022/12/02 12:02:15;;;;;;;;;;;;;;;;;;5030501;28;913;-73
2022/12/02 12:04:41;;;;;;;;;;;;;;;;;;5030931;28;1396;-74
2022/12/02 12:07:08;;;;;;;;;;;;;;;;;;5013499;28;1184;-75
2022/12/02 12:09:34;;;;;;;;;;;;;;;;;;5013328;28;1503;-75
2022/12/02 12:12:10;;;;;;;;;;;;;;;;;;5029938;28;1063;-74
2022/12/02 12:14:57;;;;;;;;;;;;;;;;;;5013154;28;1322;-75
2022/12/02 12:17:48;;;;;;;;;;;;;;;;;;5013315;28;1952;-74
2022/12/02 12:20:32;;;;;;;;;;;;;;;;;;5020701;28;2277;-75
2022/12/02 12:23:13;;;;;;;;;;;;;;;;;;5030024;28;901;-75
2022/12/02 12:25:41;;;;;;;;;;;;;;;;;;5029840;28;1421;-74
2022/12/02 12:28:22;;;;;;;;;;;;;;;;;;5013197;28;1114;-75
2022/12/02 12:30:49;;;;;;;;;;;;;;;;;;5031121;28;815;-75
2022/12/02 12:33:15;;;;;;;;;;;;;;;;;;5012076;28;1168;-76
2022/12/02 12:35:42;;;;;;;;;;;;;;;;;;5030947;28;1977;-75
2022/12/02 12:38:08;;;;;;;;;;;;;;;;;;5030949;28;866;-74
2022/12/02 12:40:34;;;;;;;;;;;;;;;;;;5030920;28;871;-75
2022/12/02 12:43:00;;;;;;;;;;;;;;;;;;5036550;28;1072;-75
2022/12/02 12:45:27;;;;;;;;;;;;;;;;;;5050418;28;1316;-75
2022/12/02 12:47:54;;;;;;;;;;;;;;;;;;5050564;28;925;-75
2022/12/02 12:50:21;;;;;;;;;;;;;;;;;;5049422;28;1232;-74
2022/12/02 12:52:47;;;;;;;;;;;;;;;;;;5049824;28;1053;-75
2022/12/02 12:55:13;;;;;;;;;;;;;;;;;;5049802;28;1750;-74
2022/12/02 12:57:39;;;;;;;;;;;;;;;;;;5062704;28;1981;-75
2022/12/02 13:00:06;;;;;;;;;;;;;;;;;;5068243;28;1080;-74
2022/12/02 13:02:33;;;;;;;;;;;;;;;;;;5046337;28;1112;-73
2022/12/02 13:05:01;;;;;;;;;;;;;;;;;;5033431;28;1552;-74
2022/12/02 13:07:27;;;;;;;;;;;;;;;;;;5050413;28;1118;-75
2022/12/02 13:09:53;;;;;;;;;;;;;;;;;;5050412;28;930;-74
2022/12/02 13:12:19;;;;;;;;;;;;;;;;;;5049405;28;1140;-75
2022/12/02 13:14:45;;;;;;;;;;;;;;;;;;5032434;28;1431;-75
2022/12/02 13:17:11;;;;;;;;;;;;;;;;;;5050319;28;1991;-73
2022/12/02 13:19:38;;;;;;;;;;;;;;;;;;5050087;28;1059;-74
2022/12/02 13:22:05;;;;;;;;;;;;;;;;;;5025905;28;1479;-74
2022/12/02 13:24:32;;;;;;;;;;;;;;;;;;5037034;28;1393;-75
2022/12/02 13:26:58;;;;;;;;;;;;;;;;;;5053379;28;960;-74
2022/12/02 13:29:24;;;;;;;;;;;;;;;;;;5051837;28;1212;-75
2022/12/02 13:31:50;;;;;;;;;;;;;;;;;;5051287;28;1155;-73
2022/12/02 13:34:17;;;;;;;;;;;;;;;;;;5053427;28;1407;-74
2022/12/02 13:36:43;;;;;;;;;;;;;;;;;;5052334;28;1906;-73
2022/12/02 13:39:12;;;;;;;;;;;;;;;;;;5053688;28;1075;-74
2022/12/02 13:41:38;;;;;;;;;;;;;;;;;;5052570;28;1110;-73
2022/12/02 13:44:04;;;;;;;;;;;;;;;;;;5051497;28;1453;-73
2022/12/02 13:46:31;;;;;;;;;;;;;;;;;;5053574;28;1199;-74
2022/12/02 13:48:57;;;;;;;;;;;;;;;;;;5050561;28;1366;-74
2022/12/02 13:51:23;;;;;;;;;;;;;;;;;;5042932;28;1428;-74
2022/12/02 13:53:49;;;;;;;;;;;;;;;;;;5052236;28;1422;-74
2022/12/02 13:56:17;;;;;;;;;;;;;;;;;;5056938;28;1980;-75
2022/12/02 13:58:43;;;;;;;;;;;;;;;;;;5073332;28;917;-73
2022/12/02 14:01:09;;;;;;;;;;;;;;;;;;5041303;28;1388;-73
2022/12/02 14:03:36;;;;;;;;;;;;;;;;;;5052092;28;1216;-73
2022/12/02 14:06:02;;;;;;;;;;;;;;;;;;5053215;28;1388;-73
2022/12/02 14:08:28;;;;;;;;;;;;;;;;;;5051689;28;928;-74
2022/12/02 14:10:54;;;;;;;;;;;;;;;;;;5052177;28;2161;-75
2022/12/02 14:13:22;;;;;;;;;;;;;;;;;;5060605;28;1121;-73
2022/12/02 14:15:48;;;;;;;;;;;;;;;;;;5067083;28;1298;-73
2022/12/02 14:18:14;;;;;;;;;;;;;;;;;;5068477;28;1926;-73
2022/12/02 14:20:41;;;;;;;;;;;;;;;;;;5062024;28;1131;-74
2022/12/02 14:23:10;;;;;;;;;;;;;;;;;;5071912;28;1408;-74
2022/12/02 14:25:36;;;;;;;;;;;;;;;;;;5051701;28;1428;-75
2022/12/02 14:28:02;;;;;;;;;;;;;;;;;;5054722;28;1207;-74
2022/12/02 14:30:30;;;;;;;;;;;;;;;;;;5064334;28;1446;-74
2022/12/02 14:32:56;;;;;;;;;;;;;;;;;;5065456;28;1083;-73
2022/12/02 14:35:22;;;;;;;;;;;;;;;;;;5071016;28;1266;-73
2022/12/02 14:37:49;;;;;;;;;;;;;;;;;;5072703;28;1969;-74
2022/12/02 14:40:15;;;;;;;;;;;;;;;;;;5072540;28;1056;-74
2022/12/02 14:42:41;;;;;;;;;;;;;;;;;;5061920;28;1412;-73
2022/12/02 14:45:07;;;;;;;;;;;;;;;;;;5070409;28;1329;-74
2022/12/02 14:47:35;;;;;;;;;;;;;;;;;;5063676;28;1051;-74
2022/12/02 14:50:01;;;;;;;;;;;;;;;;;;5072530;28;1095;-74
2022/12/02 14:52:27;;;;;;;;;;;;;;;;;;5070035;28;1078;-75
2022/12/02 14:54:54;;;;;;;;;;;;;;;;;;5065082;28;1480;-74
2022/12/02 14:57:20;;;;;;;;;;;;;;;;;;5045276;28;1926;-74
2022/12/02 14:59:46;;;;;;;;;;;;;;;;;;5045585;28;1630;-74
2022/12/02 15:02:13;;;;;;;;;;;;;;;;;;5055564;28;1337;-74
2022/12/02 15:04:41;;;;;;;;;;;;;;;;;;5062598;28;1502;-74
2022/12/02 15:07:07;;;;;;;;;;;;;;;;;;5048977;28;1307;-75
2022/12/02 15:09:33;;;;;;;;;;;;;;;;;;5065220;28;1567;-75
2022/12/02 15:11:59;;;;;;;;;;;;;;;;;;5058722;28;1400;-74
2022/12/02 15:14:25;;;;;;;;;;;;;;;;;;5023309;28;1440;-74
2022/12/02 15:16:52;;;;;;;;;;;;;;;;;;5049354;28;1914;-74
2022/12/02 15:19:18;;;;;;;;;;;;;;;;;;5043658;28;1433;-75
2022/12/02 15:21:45;;;;;;;;;;;;;;;;;;5054399;28;1352;-75
2022/12/02 15:24:12;;;;;;;;;;;;;;;;;;5051881;28;1490;-75
2022/12/02 15:26:38;;;;;;;;;;;;;;;;;;5057928;28;1059;-75
2022/12/02 15:29:04;;;;;;;;;;;;;;;;;;5052170;22;3739;-77
2022/12/02 15:31:30;;;;;;;;;;;;;;;;;;5030349;28;1527;-78
2022/12/02 15:33:57;;;;;;;;;;;;;;;;;;5024295;28;1394;-77
2022/12/02 15:36:23;;;;;;;;;;;;;;;;;;5029584;28;1472;-78
2022/12/02 15:38:50;;;;;;;;;;;;;;;;;;5030509;28;2008;-77
2022/12/02 15:41:17;;;;;;;;;;;;;;;;;;5025589;28;1749;-77
2022/12/02 15:43:43;;;;;;;;;;;;;;;;;;5026773;28;2011;-79
2022/12/02 15:46:09;;;;;;;;;;;;;;;;;;5032283;28;1190;-78
2022/12/02 15:48:35;;;;;;;;;;;;;;;;;;5031431;28;2019;-78
2022/12/02 15:51:02;;;;;;;;;;;;;;;;;;5043636;28;1794;-78
2022/12/02 15:53:28;;;;;;;;;;;;;;;;;;5031449;28;1148;-78
2022/12/02 15:55:55;;;;;;;;;;;;;;;;;;5030971;28;1428;-78
2022/12/02 15:58:22;;;;;;;;;;;;;;;;;;5022575;28;1990;-78
2022/12/02 16:00:48;;;;;;;;;;;;;;;;;;5030435;28;1678;-78
2022/12/02 16:03:14;;;;;;;;;;;;;;;;;;5031729;28;1336;-79
2022/12/02 16:05:40;;;;;;;;;;;;;;;;;;5028849;28;1729;-79
2022/12/02 16:08:07;;;;;;;;;;;;;;;;;;5032341;28;1541;-78
2022/12/02 16:10:34;;;;;;;;;;;;;;;;;;5031772;28;1268;-78
2022/12/02 16:13:01;;;;;;;;;;;;;;;;;;5031079;28;1470;-78
2022/12/02 16:15:27;;;;;;;;;;;;;;;;;;5031397;28;1666;-78
2022/12/02 16:17:54;;;;;;;;;;;;;;;;;;5025503;28;2000;-77
2022/12/02 16:20:20;;;;;;;;;;;;;;;;;;5024096;28;1844;-78
2022/12/02 16:22:46;;;;;;;;;;;;;;;;;;5026568;28;1202;-78
2022/12/02 16:25:12;;;;;;;;;;;;;;;;;;5029972;28;1675;-78
2022/12/02 16:27:39;;;;;;;;;;;;;;;;;;5034197;28;1325;-78
2022/12/02 16:30:07;;;;;;;;;;;;;;;;;;5040651;28;1408;-78
2022/12/02 16:32:33;;;;;;;;;;;;;;;;;;5042922;28;1200;-78
2022/12/02 16:34:59;;;;;;;;;;;;;;;;;;5039593;28;1427;-79
2022/12/02 16:37:26;;;;;;;;;;;;;;;;;;5034796;28;1910;-78
2022/12/02 16:39:52;;;;;;;;;;;;;;;;;;5033166;28;1464;-77
2022/12/02 16:42:18;;;;;;;;;;;;;;;;;;5032817;28;1407;-78
2022/12/02 16:44:44;;;;;;;;;;;;;;;;;;5021338;28;1490;-79
2022/12/02 16:47:12;;;;;;;;;;;;;;;;;;5051179;28;1229;-77
2022/12/02 16:49:38;;;;;;;;;;;;;;;;;;5064299;28;1379;-78
2022/12/02 16:52:05;;;;;;;;;;;;;;;;;;5043080;28;1388;-78
2022/12/02 16:54:31;;;;;;;;;;;;;;;;;;5048618;28;1182;-77
2022/12/02 16:56:57;;;;;;;;;;;;;;;;;;5045709;28;1427;-76
2022/12/02 16:59:25;;;;;;;;;;;;;;;;;;5034881;28;1975;-76
2022/12/02 17:01:52;;;;;;;;;;;;;;;;;;5033081;28;1101;-77
2022/12/02 17:04:19;;;;;;;;;;;;;;;;;;5047109;28;1095;-78
2022/12/02 17:06:45;;;;;;;;;;;;;;;;;;5051824;28;1066;-77
2022/12/02 17:09:12;;;;;;;;;;;;;;;;;;5046348;28;1437;-78